Time;durP1;ratioP1;P1;durP2;ratioP2;P2;SDS_P1;SDS_P2;PMS_P1;PMS_P2;Temp;Humidity;BMP_temperature;BMP_pressure;BME280_temperature;BME280_humidity;BME280_pressure;Samples;Min_cycle;Max_cycle;Signal;HPM_P1;HPM_P2
2023/08/08 00:02:12;;;;;;;2.60;1.50;;;;;;;14.18;100.00;98593.71;109620;1251;66036;-76
2023/08/08 00:04:39;;;;;;;2.80;1.50;;;;;;;14.15;100.00;98589.70;109640;1251;60303;-77
2023/08/08 00:07:06;;;;;;;3.90;1.70;;;;;;;14.12;100.00;98589.63;109621;1251;64031;-77
2023/08/08 00:09:32;;;;;;;1.40;1.30;;;;;;;14.09;100.00;98590.44;109643;1251;58982;-77
2023/08/08 00:11:59;;;;;;;1.20;1.10;;;;;;;14.06;100.00;98594.63;109643;1250;58966;-77
2023/08/08 00:14:25;;;;;;;1.90;1.30;;;;;;;14.04;100.00;98602.84;109676;1250;65722;-77
2023/08/08 00:16:52;;;;;;;2.00;1.30;;;;;;;14.02;100.00;98604.22;109581;1250;59085;-77
2023/08/08 00:19:19;;;;;;;1.60;1.50;;;;;;;14.01;100.00;98602.73;109612;1251;73638;-76
2023/08/08 00:21:45;;;;;;;2.20;1.40;;;;;;;14.00;100.00;98611.02;109501;1251;58992;-77
2023/08/08 00:24:12;;;;;;;1.70;1.60;;;;;;;14.00;100.00;98614.02;109693;1251;58965;-76
2023/08/08 00:26:38;;;;;;;2.30;1.60;;;;;;;14.02;100.00;98616.07;109648;1251;66043;-76
2023/08/08 00:29:06;;;;;;;1.60;1.50;;;;;;;14.01;100.00;98618.81;109645;1250;60169;-77
2023/08/08 00:31:33;;;;;;;1.60;1.50;;;;;;;14.00;100.00;98615.47;109690;1251;64045;-77
2023/08/08 00:33:59;;;;;;;1.60;1.30;;;;;;;13.99;100.00;98625.60;109551;1251;58951;-77
2023/08/08 00:36:26;;;;;;;1.30;1.20;;;;;;;13.97;100.00;98627.52;109649;1251;58976;-78
2023/08/08 00:38:52;;;;;;;1.50;1.40;;;;;;;13.96;100.00;98625.28;109654;1251;64959;-77
2023/08/08 00:41:19;;;;;;;1.60;1.30;;;;;;;13.95;100.00;98624.52;109714;1250;60082;-77
2023/08/08 00:43:45;;;;;;;1.70;1.30;;;;;;;13.93;100.00;98628.07;109538;1251;148650;-77
2023/08/08 00:46:12;;;;;;;2.00;1.10;;;;;;;13.92;100.00;98634.02;109646;1251;59152;-77
2023/08/08 00:48:39;;;;;;;1.40;1.30;;;;;;;13.91;100.00;98631.11;109681;1251;58861;-77
2023/08/08 00:51:05;;;;;;;4.50;1.50;;;;;;;13.90;100.00;98629.25;109661;1250;67073;-76
2023/08/08 00:53:32;;;;;;;1.70;1.50;;;;;;;13.87;100.00;98630.20;109651;1250;60318;-76
2023/08/08 00:55:59;;;;;;;1.70;1.60;;;;;;;13.86;100.00;98632.11;109704;1251;65216;-76
2023/08/08 00:58:26;;;;;;;2.20;1.40;;;;;;;13.84;100.00;98626.68;109658;1251;58947;-77
2023/08/08 01:00:56;;;;;;;1.90;1.60;;;;;;;13.82;100.00;98627.02;109706;1251;58997;-76
2023/08/08 01:03:23;;;;;;;3.30;1.50;;;;;;;13.80;100.00;98628.44;109735;1251;66091;-76
2023/08/08 01:05:58;;;;;;;3.20;1.40;;;;;;;13.78;100.00;98630.73;109678;1250;60193;-77
2023/08/08 01:08:32;;;;;;;2.20;1.30;;;;;;;13.77;100.00;98632.67;109616;1251;64082;-77
2023/08/08 01:10:59;;;;;;;2.10;1.40;;;;;;;13.75;100.00;98633.73;109573;1251;58967;-77
2023/08/08 01:13:30;;;;;;;1.40;1.20;;;;;;;13.73;100.00;98640.11;109597;1251;59098;-76
2023/08/08 01:15:57;;;;;;;1.60;1.50;;;;;;;13.70;100.00;98639.13;109624;1251;67194;-77
2023/08/08 01:18:24;;;;;;;2.10;1.20;;;;;;;13.68;100.00;98637.55;109613;1250;61053;-77
2023/08/08 01:20:54;;;;;;;1.30;1.20;;;;;;;13.66;100.00;98638.84;109615;1251;64049;-76
2023/08/08 01:23:30;;;;;;;1.90;1.20;;;;;;;13.64;100.00;98638.80;109573;1251;59051;-77
2023/08/08 01:25:58;;;;;;;2.70;1.60;;;;;;;13.61;100.00;98635.42;109650;1251;58974;-77
2023/08/08 01:28:24;;;;;;;3.90;1.40;;;;;;;13.58;100.00;98636.23;109635;1251;65805;-77
2023/08/08 01:30:52;;;;;;;1.70;1.10;;;;;;;13.55;100.00;98635.79;109695;1251;60002;-77
2023/08/08 01:33:18;;;;;;;2.70;1.20;;;;;;;13.51;100.00;98635.41;109469;1251;62643;-76
2023/08/08 01:35:54;;;;;;;2.70;1.90;;;;;;;13.46;100.00;98635.84;109644;1251;58938;-77
2023/08/08 01:38:29;;;;;;;1.20;1.00;;;;;;;13.42;100.00;98637.27;109660;1251;58924;-77
2023/08/08 01:40:57;;;;;;;1.40;1.30;;;;;;;13.37;100.00;98638.39;109634;1251;67458;-77
2023/08/08 01:43:25;;;;;;;3.10;1.60;;;;;;;13.31;100.00;98639.24;109654;1251;58934;-77
2023/08/08 01:45:52;;;;;;;3.60;1.30;;;;;;;13.25;100.00;98640.46;109652;1251;64094;-77
2023/08/08 01:48:19;;;;;;;1.70;1.50;;;;;;;13.18;100.00;98639.64;109614;1251;58969;-77
2023/08/08 01:50:45;;;;;;;2.00;1.30;;;;;;;13.11;100.00;98641.94;109591;1251;59039;-77
2023/08/08 01:53:12;;;;;;;3.10;1.80;;;;;;;13.05;100.00;98640.84;109685;1250;66850;-77
2023/08/08 01:55:38;;;;;;;2.10;1.40;;;;;;;12.98;100.00;98643.91;109604;1250;60170;-77
2023/08/08 01:58:05;;;;;;;1.70;1.20;;;;;;;12.93;100.00;98643.92;109612;1251;65260;-77
2023/08/08 02:00:32;;;;;;;1.50;1.40;;;;;;;12.89;100.00;98643.03;109621;1251;58965;-77
2023/08/08 02:02:58;;;;;;;1.90;1.50;;;;;;;12.86;100.00;98641.87;109694;1251;58986;-77
2023/08/08 02:05:25;;;;;;;2.00;1.40;;;;;;;12.83;100.00;98641.05;109599;1251;67196;-77
2023/08/08 02:07:52;;;;;;;3.80;1.60;;;;;;;12.78;100.00;98643.56;109679;1251;60299;-77
2023/08/08 02:10:18;;;;;;;5.20;1.50;;;;;;;12.76;100.00;98649.33;109658;1251;59035;-77
2023/08/08 02:12:45;;;;;;;2.80;1.20;;;;;;;12.74;100.00;98652.84;109617;1251;58986;-77
2023/08/08 02:15:11;;;;;;;2.40;1.60;;;;;;;12.75;100.00;98650.96;109610;1251;59457;-77
2023/08/08 02:17:38;;;;;;;2.20;1.50;;;;;;;12.72;100.00;98649.61;109644;1250;65722;-77
2023/08/08 02:20:06;;;;;;;3.00;1.60;;;;;;;12.69;100.00;98650.58;109475;1251;60942;-77
2023/08/08 02:22:33;;;;;;;3.00;1.50;;;;;;;12.66;100.00;98656.38;109586;1251;63683;-77
2023/08/08 02:25:00;;;;;;;1.70;1.60;;;;;;;12.62;100.00;98654.57;109581;1251;58956;-77
2023/08/08 02:27:26;;;;;;;3.20;1.50;;;;;;;12.59;100.00;98657.24;109612;1251;59006;-77
2023/08/08 02:29:53;;;;;;;3.10;1.50;;;;;;;12.59;100.00;98656.42;109631;1251;65746;-77
2023/08/08 02:32:20;;;;;;;2.00;1.50;;;;;;;12.58;100.00;98662.17;109670;1250;60284;-77
2023/08/08 02:34:46;;;;;;;2.10;1.90;;;;;;;12.56;100.00;98662.50;109533;1251;64017;-77
2023/08/08 02:37:13;;;;;;;2.70;1.50;;;;;;;12.54;100.00;98661.45;109669;1251;58963;-77
2023/08/08 02:39:42;;;;;;;3.20;1.50;;;;;;;12.51;100.00;98666.98;109639;1251;59036;-77
2023/08/08 02:42:09;;;;;;;4.40;1.70;;;;;;;12.49;100.00;98668.05;109661;1251;66109;-77
2023/08/08 02:44:35;;;;;;;2.70;1.80;;;;;;;12.46;100.00;98673.95;109668;1251;60984;-77
2023/08/08 02:47:02;;;;;;;2.60;1.60;;;;;;;12.45;100.00;98674.76;109598;1251;62901;-77
2023/08/08 02:49:29;;;;;;;3.70;1.90;;;;;;;12.43;100.00;98677.27;109544;1251;59540;-77
2023/08/08 02:51:56;;;;;;;2.60;1.70;;;;;;;12.42;100.00;98680.54;109643;1251;58935;-77
2023/08/08 02:54:22;;;;;;;2.00;1.70;;;;;;;12.41;100.00;98682.92;109616;1250;66144;-77
2023/08/08 02:56:49;;;;;;;3.80;2.00;;;;;;;12.41;100.00;98682.59;109636;1251;59869;-78
2023/08/08 02:59:16;;;;;;;5.00;2.00;;;;;;;12.40;100.00;98685.68;109623;1251;63147;-77
2023/08/08 03:01:42;;;;;;;4.10;2.30;;;;;;;12.38;100.00;98689.63;109584;1251;58900;-77
2023/08/08 03:04:09;;;;;;;3.20;2.10;;;;;;;12.35;100.00;98690.71;109618;1251;59134;-77
2023/08/08 03:06:35;;;;;;;4.10;1.90;;;;;;;12.34;100.00;98694.55;109668;1251;66203;-78
2023/08/08 03:09:02;;;;;;;4.60;2.10;;;;;;;12.34;100.00;98699.67;109641;1251;59890;-77
2023/08/08 03:11:29;;;;;;;3.90;2.20;;;;;;;12.35;100.00;98700.36;109571;1251;63821;-76
2023/08/08 03:13:55;;;;;;;7.10;2.50;;;;;;;12.36;100.00;98701.51;109661;1251;58927;-77
2023/08/08 03:16:22;;;;;;;6.10;2.20;;;;;;;12.37;100.00;98699.84;109674;1251;58946;-77
2023/08/08 03:18:48;;;;;;;4.20;1.90;;;;;;;12.38;100.00;98699.73;109443;1251;65876;-77
2023/08/08 03:21:15;;;;;;;4.00;2.50;;;;;;;12.40;100.00;98702.97;109672;1251;60108;-77
2023/08/08 03:23:41;;;;;;;3.00;2.10;;;;;;;12.43;100.00;98701.88;109675;1251;63266;-77
2023/08/08 03:26:08;;;;;;;5.30;2.70;;;;;;;12.45;100.00;98703.09;109602;1251;59010;-77
2023/08/08 03:28:35;;;;;;;3.20;2.10;;;;;;;12.48;100.00;98698.45;109590;1251;58988;-77
2023/08/08 03:31:03;;;;;;;4.00;2.80;;;;;;;12.51;100.00;98702.79;109601;1251;66295;-77
2023/08/08 03:33:29;;;;;;;4.00;2.30;;;;;;;12.55;100.00;98705.73;109660;1251;59123;-77
2023/08/08 03:35:56;;;;;;;3.90;2.70;;;;;;;12.58;100.00;98705.11;109639;1251;62802;-77
2023/08/08 03:38:22;;;;;;;3.30;2.20;;;;;;;12.60;100.00;98708.48;109608;1251;59369;-77
2023/08/08 03:40:49;;;;;;;3.50;2.60;;;;;;;12.62;100.00;98713.00;109627;1251;58956;-77
2023/08/08 03:43:15;;;;;;;3.90;2.20;;;;;;;12.65;100.00;98717.92;109669;1250;66704;-78
2023/08/08 03:45:42;;;;;;;3.50;2.30;;;;;;;12.68;100.00;98719.64;109637;1251;59086;-77
2023/08/08 03:48:09;;;;;;;4.70;2.40;;;;;;;12.70;100.00;98722.46;109632;1251;63724;-77
2023/08/08 03:50:35;;;;;;;3.30;2.00;;;;;;;12.72;100.00;98725.73;109597;1251;59035;-77
2023/08/08 03:53:02;;;;;;;2.70;2.40;;;;;;;12.81;100.00;98728.44;109656;1251;58971;-77
2023/08/08 03:55:29;;;;;;;3.60;2.10;;;;;;;12.82;100.00;98730.63;109599;1251;74554;-77
2023/08/08 03:57:55;;;;;;;2.90;2.20;;;;;;;12.84;100.00;98734.96;109657;1251;59102;-77
2023/08/08 04:00:22;;;;;;;3.80;2.00;;;;;;;12.86;100.00;98740.83;109560;1251;62515;-77
2023/08/08 04:02:48;;;;;;;2.20;2.00;;;;;;;12.88;100.00;98747.23;109629;1251;58958;-77
2023/08/08 04:05:15;;;;;;;4.50;2.10;;;;;;;12.91;100.00;98742.77;109597;1255;61498;-78
2023/08/08 04:07:42;;;;;;;2.80;2.00;;;;;;;12.93;100.00;98739.67;109648;1251;65895;-78
2023/08/08 04:10:09;;;;;;;5.50;2.20;;;;;;;12.96;100.00;98744.27;109590;1250;59035;-78
2023/08/08 04:12:35;;;;;;;2.60;1.60;;;;;;;13.02;100.00;98746.19;109509;1251;64258;-77
2023/08/08 04:15:02;;;;;;;4.60;2.00;;;;;;;13.23;100.00;98744.44;109634;1251;58960;-78
2023/08/08 04:17:28;;;;;;;3.80;2.00;;;;;;;13.65;100.00;98747.41;109612;1251;59068;-75
2023/08/08 04:19:55;;;;;;;4.30;2.50;;;;;;;13.62;100.00;98751.39;109639;1251;67593;-77
2023/08/08 04:22:21;;;;;;;3.60;2.10;;;;;;;13.57;100.00;98752.67;109627;1251;60243;-76
2023/08/08 04:24:48;;;;;;;3.80;1.90;;;;;;;13.57;100.00;98753.74;109672;1251;62856;-77
2023/08/08 04:27:14;;;;;;;3.90;1.80;;;;;;;13.58;100.00;98761.19;109579;1251;60583;-76
2023/08/08 04:29:41;;;;;;;4.70;2.20;;;;;;;13.60;100.00;98759.80;109635;1251;59052;-77
2023/08/08 04:32:08;;;;;;;2.60;2.20;;;;;;;13.61;100.00;98764.51;109652;1251;67137;-77
2023/08/08 04:34:35;;;;;;;3.10;2.10;;;;;;;13.64;100.00;98765.17;109642;1251;60209;-77
2023/08/08 04:37:01;;;;;;;2.70;2.20;;;;;;;13.68;100.00;98772.15;109617;1251;62990;-77
2023/08/08 04:39:28;;;;;;;4.50;2.40;;;;;;;13.72;100.00;98777.38;109525;1251;58990;-76
2023/08/08 04:41:54;;;;;;;4.80;2.00;;;;;;;13.77;100.00;98778.94;109689;1251;58888;-77
2023/08/08 04:44:21;;;;;;;3.20;2.00;;;;;;;13.81;100.00;98784.44;109487;1251;66318;-76
2023/08/08 04:46:47;;;;;;;2.90;2.10;;;;;;;13.84;100.00;98792.23;109683;1251;60259;-77
2023/08/08 04:49:14;;;;;;;4.40;2.50;;;;;;;13.88;100.00;98796.97;109581;1251;62732;-77
2023/08/08 04:51:40;;;;;;;3.00;2.10;;;;;;;13.92;100.00;98802.47;109575;1251;58945;-77
2023/08/08 04:54:07;;;;;;;2.10;1.90;;;;;;;14.00;100.00;98804.65;109646;1251;59124;-76
2023/08/08 04:56:34;;;;;;;3.60;1.80;;;;;;;14.07;100.00;98810.13;109691;1251;65883;-76
2023/08/08 04:59:00;;;;;;;5.30;2.10;;;;;;;14.12;100.00;98813.65;109669;1251;59990;-77
2023/08/08 05:01:27;;;;;;;2.30;2.00;;;;;;;14.17;100.00;98817.92;109612;1251;62921;-76
2023/08/08 05:03:53;;;;;;;3.50;2.10;;;;;;;14.25;100.00;98817.02;109522;1251;59058;-77
2023/08/08 05:06:20;;;;;;;2.80;1.80;;;;;;;14.25;100.00;98819.65;109631;1251;58994;-76
2023/08/08 05:08:50;;;;;;;3.50;2.20;;;;;;;14.23;100.00;98821.30;109578;1251;66142;-76
2023/08/08 05:11:16;;;;;;;3.00;1.90;;;;;;;14.21;100.00;98822.75;109633;1251;59043;-76
2023/08/08 05:13:43;;;;;;;2.90;2.30;;;;;;;14.25;100.00;98822.54;109500;1251;62457;-76
2023/08/08 05:16:09;;;;;;;5.30;1.90;;;;;;;14.34;100.00;98826.95;109625;1251;58969;-76
2023/08/08 05:18:36;;;;;;;3.30;2.20;;;;;;;14.45;100.00;98831.20;109623;1251;58940;-76
2023/08/08 05:21:02;;;;;;;4.30;2.10;;;;;;;14.56;100.00;98834.98;109582;1251;64855;-75
2023/08/08 05:23:29;;;;;;;2.00;1.50;;;;;;;14.69;100.00;98836.54;109608;1251;60130;-78
2023/08/08 05:25:55;;;;;;;3.50;2.30;;;;;;;14.82;100.00;98836.26;109618;1251;64198;-78
2023/08/08 05:28:22;;;;;;;3.20;2.00;;;;;;;14.94;100.00;98837.52;109495;1251;59061;-77
2023/08/08 05:30:49;;;;;;;6.40;3.00;;;;;;;15.07;100.00;98838.63;109620;1251;58932;-77
2023/08/08 05:33:16;;;;;;;3.10;1.70;;;;;;;15.17;100.00;98839.66;109667;1251;64758;-77
2023/08/08 05:35:42;;;;;;;3.40;1.90;;;;;;;15.48;100.00;98841.42;109634;1251;59793;-77
2023/08/08 05:38:09;;;;;;;5.00;1.90;;;;;;;15.60;100.00;98838.54;109603;1251;64983;-77
2023/08/08 05:40:36;;;;;;;3.60;1.50;;;;;;;15.60;100.00;98835.86;109619;1251;58975;-78
2023/08/08 05:43:03;;;;;;;3.50;1.90;;;;;;;15.53;100.00;98838.23;109663;1251;59157;-77
2023/08/08 05:45:30;;;;;;;2.40;1.70;;;;;;;15.48;100.00;98839.65;109668;1250;64535;-78
2023/08/08 05:47:56;;;;;;;3.20;1.90;;;;;;;15.40;100.00;98838.20;109614;1251;59315;-77
2023/08/08 05:50:23;;;;;;;3.40;1.80;;;;;;;15.33;100.00;98838.38;109619;1251;64838;-76
2023/08/08 05:52:50;;;;;;;1.90;1.50;;;;;;;15.29;100.00;98844.67;109614;1251;58939;-78
2023/08/08 05:55:16;;;;;;;5.40;1.90;;;;;;;15.37;100.00;98841.08;109591;1251;59009;-76
2023/08/08 05:57:43;;;;;;;4.60;1.70;;;;;;;16.21;100.00;98836.35;109637;1251;65736;-77
2023/08/08 06:00:11;;;;;;;2.50;2.10;;;;;;;17.00;100.00;98829.42;109637;1251;58969;-76
2023/08/08 06:02:37;;;;;;;2.50;1.80;;;;;;;17.57;100.00;98831.09;109422;1251;62535;-76
2023/08/08 06:05:05;;;;;;;5.90;1.50;;;;;;;18.11;100.00;98828.45;109579;1251;59025;-77
2023/08/08 06:07:31;;;;;;;1.60;1.40;;;;;;;18.63;100.00;98818.88;109413;1251;59828;-77
2023/08/08 06:09:58;;;;;;;4.70;2.20;;;;;;;19.04;100.00;98820.06;109643;1251;67196;-77
2023/08/08 06:12:24;;;;;;;4.30;1.60;;;;;;;19.39;100.00;98825.52;109676;1250;59481;-77
2023/08/08 06:14:51;;;;;;;3.80;1.40;;;;;;;19.69;100.00;98827.89;109548;1251;64167;-77
2023/08/08 06:17:17;;;;;;;2.70;1.80;;;;;;;19.89;100.00;98829.53;109599;1251;58921;-77
2023/08/08 06:19:45;;;;;;;2.90;1.30;;;;;;;20.00;100.00;98833.56;109574;1251;59167;-77
2023/08/08 06:22:11;;;;;;;2.60;1.50;;;;;;;20.19;100.00;98832.38;109585;1255;65650;-77
2023/08/08 06:24:39;;;;;;;1.70;1.40;;;;;;;20.40;100.00;98834.80;109593;1251;61538;-76
2023/08/08 06:27:05;;;;;;;1.40;1.10;;;;;;;20.47;100.00;98834.23;109567;1251;62832;-77
2023/08/08 06:29:32;;;;;;;2.90;1.40;;;;;;;20.46;100.00;98833.08;109603;1251;59045;-77
2023/08/08 06:31:59;;;;;;;2.40;1.20;;;;;;;20.47;100.00;98831.90;109666;1251;58925;-76
2023/08/08 06:34:26;;;;;;;1.90;1.20;;;;;;;20.49;100.00;98836.13;109644;1254;66137;-77
2023/08/08 06:36:52;;;;;;;2.30;1.40;;;;;;;20.46;100.00;98839.77;109646;1251;59915;-76
2023/08/08 06:39:21;;;;;;;2.50;1.30;;;;;;;20.44;100.00;98840.33;109659;1251;65128;-77
2023/08/08 06:41:48;;;;;;;1.80;1.00;;;;;;;20.46;100.00;98832.58;109660;1251;59065;-76
2023/08/08 06:44:14;;;;;;;2.90;1.20;;;;;;;20.59;100.00;98826.64;109653;1251;61557;-76
2023/08/08 06:46:41;;;;;;;3.40;1.40;;;;;;;20.68;100.00;98825.59;109633;1251;66924;-76
2023/08/08 06:49:08;;;;;;;1.50;1.20;;;;;;;20.73;100.00;98831.95;109663;1251;60104;-77
2023/08/08 06:51:35;;;;;;;1.80;1.50;;;;;;;20.64;100.00;98838.69;109426;1251;64053;-77
2023/08/08 06:54:02;;;;;;;6.30;1.50;;;;;;;20.56;100.00;98832.20;109567;1251;58996;-77
2023/08/08 06:56:29;;;;;;;2.40;1.50;;;;;;;20.49;100.00;98832.62;109195;1251;59043;-77
2023/08/08 06:58:55;;;;;;;3.00;1.50;;;;;;;20.38;100.00;98832.67;109594;1250;66120;-77
2023/08/08 07:01:22;;;;;;;1.50;1.40;;;;;;;20.40;100.00;98830.35;109393;1251;59997;-77
2023/08/08 07:03:49;;;;;;;4.20;1.60;;;;;;;20.41;100.00;98832.13;109570;1251;64991;-77
2023/08/08 07:06:17;;;;;;;3.60;1.20;;;;;;;20.29;100.00;98834.54;109589;1251;59040;-76
2023/08/08 07:08:44;;;;;;;2.90;1.40;;;;;;;20.22;100.00;98833.42;109618;1251;58897;-77
2023/08/08 07:11:10;;;;;;;1.40;1.30;;;;;;;20.08;100.00;98835.85;109447;1251;65807;-77
2023/08/08 07:13:37;;;;;;;2.20;1.30;;;;;;;19.82;100.00;98830.35;109582;1251;59928;-75
2023/08/08 07:16:03;;;;;;;3.70;1.40;;;;;;;19.54;100.00;98830.75;109651;1251;72923;-77
2023/08/08 07:18:30;;;;;;;1.50;1.30;;;;;;;19.37;100.00;98832.08;109664;1251;59022;-77
2023/08/08 07:20:56;;;;;;;4.50;1.80;;;;;;;19.24;100.00;98828.73;109622;1251;59314;-78
2023/08/08 07:23:23;;;;;;;2.40;1.40;;;;;;;19.11;100.00;98825.83;109634;1251;65840;-77
2023/08/08 07:25:50;;;;;;;2.10;1.20;;;;;;;18.99;100.00;98823.64;109648;1251;59891;-77
2023/08/08 07:28:17;;;;;;;3.00;1.60;;;;;;;18.85;100.00;98824.16;109453;1251;62785;-77
2023/08/08 07:30:44;;;;;;;2.90;1.70;;;;;;;18.79;100.00;98824.79;109627;1251;59441;-77
2023/08/08 07:33:10;;;;;;;2.50;1.60;;;;;;;18.79;100.00;98830.36;109592;1253;59084;-78
2023/08/08 07:35:37;;;;;;;2.60;1.50;;;;;;;18.78;100.00;98827.55;109669;1251;65727;-77
2023/08/08 07:38:04;;;;;;;3.50;1.50;;;;;;;18.81;100.00;98828.76;109694;1251;60996;-78
2023/08/08 07:40:30;;;;;;;2.30;1.30;;;;;;;18.81;100.00;98829.09;109432;1251;63048;-77
2023/08/08 07:42:57;;;;;;;3.30;1.60;;;;;;;18.75;100.00;98829.17;109577;1251;58992;-77
2023/08/08 07:45:24;;;;;;;2.30;1.70;;;;;;;18.88;100.00;98824.81;109616;1251;58970;-77
2023/08/08 07:47:50;;;;;;;4.00;1.40;;;;;;;19.02;100.00;98820.91;109523;1251;65693;-77
2023/08/08 07:50:17;;;;;;;2.30;1.50;;;;;;;19.05;100.00;98824.40;109640;1251;61356;-77
2023/08/08 07:52:43;;;;;;;1.80;1.20;;;;;;;19.02;100.00;98826.95;109630;1251;65145;-77
2023/08/08 07:55:10;;;;;;;2.50;1.50;;;;;;;19.15;100.00;98828.27;109570;1251;59026;-77
2023/08/08 07:57:37;;;;;;;3.80;1.60;;;;;;;19.38;100.00;98830.88;109611;1251;58968;-78
2023/08/08 08:00:11;;;;;;;4.10;1.60;;;;;;;19.64;100.00;98824.98;109560;1251;66117;-77
2023/08/08 08:02:39;;;;;;;3.30;1.40;;;;;;;19.86;100.00;98830.09;109626;1251;60982;-78
2023/08/08 08:05:07;;;;;;;3.70;1.80;;;;;;;20.04;100.00;98829.25;109605;1251;65276;-77
2023/08/08 08:07:35;;;;;;;2.40;1.50;;;;;;;20.18;100.00;98828.05;109641;1251;59031;-78
2023/08/08 08:10:03;;;;;;;3.90;1.80;;;;;;;20.31;100.00;98825.58;109637;1251;59070;-78
2023/08/08 08:12:31;;;;;;;2.40;1.40;;;;;;;20.46;100.00;98822.09;109621;1251;65947;-77
2023/08/08 08:14:58;;;;;;;2.90;1.30;;;;;;;20.55;100.00;98819.81;109587;1251;59166;-77
2023/08/08 08:17:24;;;;;;;2.80;1.40;;;;;;;20.55;100.00;98817.34;109568;1251;64040;-77
2023/08/08 08:19:51;;;;;;;2.10;1.50;;;;;;;20.34;100.00;98816.31;109546;1251;58976;-77
2023/08/08 08:22:18;;;;;;;2.70;1.60;;;;;;;20.28;100.00;98816.61;109639;1251;59024;-77
2023/08/08 08:24:45;;;;;;;2.60;1.40;;;;;;;20.13;100.00;98812.34;109572;1251;67054;-78
2023/08/08 08:27:13;;;;;;;2.20;1.60;;;;;;;20.19;100.00;98808.63;109566;1251;58982;-77
2023/08/08 08:29:40;;;;;;;2.40;1.70;;;;;;;20.44;100.00;98809.33;109571;1251;64053;-78
2023/08/08 08:32:06;;;;;;;2.10;1.80;;;;;;;20.61;100.00;98805.21;109600;1251;59062;-77
2023/08/08 08:34:33;;;;;;;2.90;1.80;;;;;;;20.59;100.00;98808.16;109448;1251;59100;-77
2023/08/08 08:36:59;;;;;;;1.80;1.60;;;;;;;20.42;100.00;98807.73;109591;1251;66106;-78
2023/08/08 08:39:26;;;;;;;3.10;1.60;;;;;;;20.31;100.00;98812.92;109608;1251;59975;-77
2023/08/08 08:42:04;;;;;;;2.40;1.60;;;;;;;20.23;100.00;98812.17;109622;1251;65049;-78
2023/08/08 08:44:31;;;;;;;3.90;1.60;;;;;;;20.07;100.00;98812.14;109592;1251;58942;-78
2023/08/08 08:47:01;;;;;;;2.20;1.40;;;;;;;19.92;100.00;98817.88;109421;1251;59156;-79
2023/08/08 08:49:31;;;;;;;2.20;1.30;;;;;;;20.06;100.00;98815.23;109656;1251;65726;-77
2023/08/08 08:52:04;;;;;;;1.40;1.30;;;;;;;20.40;100.00;98812.54;109683;1251;60104;-78
2023/08/08 08:54:32;;;;;;;2.30;1.70;;;;;;;20.79;100.00;98804.42;109633;1251;65136;-77
2023/08/08 08:56:59;;;;;;;2.70;1.40;;;;;;;21.05;100.00;98801.39;109613;1255;58951;-76
2023/08/08 08:59:25;;;;;;;2.80;1.40;;;;;;;21.13;100.00;98799.90;109664;1251;58946;-78
2023/08/08 09:01:53;;;;;;;2.50;1.30;;;;;;;21.08;100.00;98803.00;109652;1251;74687;-78
2023/08/08 09:04:21;;;;;;;2.10;1.50;;;;;;;21.30;100.00;98795.62;109663;1251;59799;-77
2023/08/08 09:06:49;;;;;;;2.80;1.60;;;;;;;21.59;100.00;98796.88;109591;1251;65058;-76
2023/08/08 09:09:17;;;;;;;1.80;1.30;;;;;;;21.55;100.00;98796.89;109643;1251;58936;-77
2023/08/08 09:11:47;;;;;;;3.20;1.50;;;;;;;21.38;100.00;98805.02;109616;1251;59089;-78
2023/08/08 09:14:24;;;;;;;3.60;1.50;;;;;;;21.14;100.00;98803.45;109428;1252;64854;-77
2023/08/08 09:16:56;;;;;;;2.50;1.50;;;;;;;20.93;100.00;98806.94;109665;1251;59064;-76
2023/08/08 09:19:24;;;;;;;4.30;1.30;;;;;;;20.73;100.00;98809.90;109392;1251;62471;-78
2023/08/08 09:21:52;;;;;;;2.40;1.30;;;;;;;20.60;100.00;98806.46;109597;1254;58949;-78
2023/08/08 09:24:19;;;;;;;2.70;1.30;;;;;;;20.74;100.00;98807.27;109649;1251;59027;-77
2023/08/08 09:26:45;;;;;;;2.90;1.20;;;;;;;21.03;100.00;98800.34;109707;1251;66090;-78
2023/08/08 09:29:14;;;;;;;3.20;1.10;;;;;;;21.36;100.00;98799.15;109597;1251;61280;-77
2023/08/08 09:31:41;;;;;;;1.30;1.20;;;;;;;21.58;100.00;98796.01;109644;1251;63814;-76
2023/08/08 09:34:07;;;;;;;1.90;1.40;;;;;;;21.63;100.00;98795.13;109591;1251;58937;-77
2023/08/08 09:36:35;;;;;;;3.60;1.50;;;;;;;21.56;100.00;98794.89;109643;1251;58856;-77
2023/08/08 09:39:02;;;;;;;4.30;1.70;;;;;;;21.39;100.00;98796.80;109611;1251;66105;-77
2023/08/08 09:41:28;;;;;;;1.90;1.60;;;;;;;21.22;100.00;98800.71;109752;1251;61087;-78
2023/08/08 09:43:55;;;;;;;1.60;1.20;;;;;;;21.05;100.00;98803.52;109607;1251;64764;-76
2023/08/08 09:46:23;;;;;;;3.00;1.40;;;;;;;20.94;100.00;98804.82;109454;1251;59045;-76
2023/08/08 09:48:50;;;;;;;2.30;1.10;;;;;;;20.81;100.00;98803.42;109592;1251;59038;-78
2023/08/08 09:51:17;;;;;;;2.00;1.50;;;;;;;20.75;100.00;98799.67;109664;1251;65742;-76
2023/08/08 09:53:44;;;;;;;1.50;1.10;;;;;;;20.77;100.00;98794.90;109640;1251;61111;-78
2023/08/08 09:56:13;;;;;;;2.90;1.40;;;;;;;20.93;100.00;98792.08;109421;1251;63939;-77
2023/08/08 09:58:42;;;;;;;2.20;1.40;;;;;;;21.17;100.00;98789.52;109647;1251;58945;-78
2023/08/08 10:01:09;;;;;;;1.60;1.50;;;;;;;21.32;100.00;98789.80;109778;1251;58881;-78
2023/08/08 10:03:37;;;;;;;2.10;1.50;;;;;;;21.40;100.00;98785.98;109561;1251;65080;-78
2023/08/08 10:06:04;;;;;;;2.50;1.40;;;;;;;21.52;100.00;98785.17;109782;1251;59828;-77
2023/08/08 10:08:30;;;;;;;2.50;1.20;;;;;;;21.60;100.00;98782.80;109736;1251;63682;-76
2023/08/08 10:10:58;;;;;;;3.20;1.40;;;;;;;21.62;100.00;98779.69;109644;1251;58963;-78
2023/08/08 10:13:26;;;;;;;2.70;1.50;;;;;;;21.67;100.00;98784.52;109572;1251;58893;-77
2023/08/08 10:15:54;;;;;;;1.60;1.20;;;;;;;21.76;100.00;98783.31;109613;1251;66070;-77
2023/08/08 10:18:22;;;;;;;2.00;1.40;;;;;;;21.76;100.00;98782.36;109645;1251;59755;-77
2023/08/08 10:20:50;;;;;;;1.70;1.30;;;;;;;21.61;100.00;98783.64;109569;1251;62829;-77
2023/08/08 10:23:17;;;;;;;2.60;1.20;;;;;;;21.43;100.00;98782.54;109515;1251;59061;-77
2023/08/08 10:25:50;;;;;;;3.20;1.50;;;;;;;21.16;100.00;98788.20;109659;1251;59125;-76
2023/08/08 10:28:20;;;;;;;2.20;1.80;;;;;;;20.77;100.00;98789.03;109642;1251;67043;-77
2023/08/08 10:30:52;;;;;;;2.50;1.50;;;;;;;20.44;100.00;98795.23;109608;1251;60184;-77
2023/08/08 10:33:22;;;;;;;2.30;1.60;;;;;;;20.18;100.00;98792.70;109613;1251;72054;-77
2023/08/08 10:36:03;;;;;;;2.20;1.40;;;;;;;20.11;100.00;98792.02;109644;1251;58967;-77
2023/08/08 10:38:48;;;;;;;2.70;1.30;;;;;;;20.25;100.00;98782.92;109630;1251;59061;-77
2023/08/08 10:41:17;;;;;;;3.00;1.90;;;;;;;20.47;100.00;98774.69;109636;1251;65792;-77
2023/08/08 10:43:52;;;;;;;3.70;1.30;;;;;;;20.67;100.00;98766.48;109644;1251;59846;-76
2023/08/08 10:46:30;;;;;;;5.10;2.50;;;;;;;20.92;100.00;98762.92;109608;1251;63840;-78
2023/08/08 10:48:59;;;;;;;4.70;1.40;;;;;;;20.97;100.00;98768.50;109583;1251;59084;-77
2023/08/08 10:51:42;;;;;;;2.20;1.50;;;;;;;20.91;100.00;98769.20;109614;1251;61355;-77
2023/08/08 10:54:27;;;;;;;2.30;1.20;;;;;;;20.67;100.00;98774.20;109299;1250;74875;-78
2023/08/08 10:56:55;;;;;;;1.60;1.10;;;;;;;20.33;100.00;98782.38;109664;1251;58917;-76
2023/08/08 10:59:24;;;;;;;2.90;1.20;;;;;;;19.94;100.00;98792.00;109600;1251;65254;-76
2023/08/08 11:01:52;;;;;;;1.80;1.30;;;;;;;19.62;100.00;98801.48;109622;1251;58937;-77
2023/08/08 11:04:23;;;;;;;1.90;1.30;;;;;;;19.40;100.00;98810.77;109659;1251;58968;-77
2023/08/08 11:06:52;;;;;;;1.70;1.10;;;;;;;19.16;100.00;98806.33;109613;1251;75818;-76
2023/08/08 11:09:19;;;;;;;1.20;1.10;;;;;;;19.17;100.00;98798.19;109564;1251;60112;-78
2023/08/08 11:11:46;;;;;;;2.80;1.30;;;;;;;19.43;100.00;98794.48;109563;1251;63751;-78
2023/08/08 11:14:16;;;;;;;2.90;1.50;;;;;;;19.63;100.00;98793.02;109646;1251;58948;-81
2023/08/08 11:16:44;;;;;;;2.10;1.50;;;;;;;19.79;100.00;98783.47;109623;1251;59093;-78
2023/08/08 11:19:12;;;;;;;2.20;1.20;;;;;;;19.95;100.00;98787.48;109665;1251;65727;-79